Página principal
METAR-TAF:

METAR-TAF

Aeroportos :

Aeroporto Internacional do Cairo

Cairo, Egipto

latitude: 30-08N, longitude: 031-24E, altura: 64 m

Observação actual do tempo

O boletim foi feito há 15 minutos, às 11:30 UTC
Vento 3 kt de noroeste
Temperatura 19°C
Humidade 40%
Pressão 1018 hPa
Visibilidade: 6000 m
Nuvens dispersasa uma altura de 2500 ft

METAR: HECA 231130Z 31003KT 6000 SCT025 19/05 Q1018 NOSIG

Hora: 13:45 (11:45 UTC)

Previsão

O boletim foi feito há 45 minutos, às 11:00 UTC
Previsão válida de 23 às 12 UTC a 24 às 18 UTC
Vento 8 kt de oeste
Visibilidade: 6000 m
Nuvens fragmentadasa uma altura de 2500 ft
Temporariamente
de 24 às 00 UTC a 24 às 08 UTC
Vento 3 kt com direcção variável
Visibilidade: 4000 m
bruma

TAF: HECA 231100Z 2312/2418 26008KT 6000 BKN025 TEMPO 2400/2408 VRB03KT 4000 HZ

Observações e previsões do tempo de mais de 4000 aeroportos (mensagens METAR e TAF).

As estações disponíveis são os pontos amarelos e vermelhos sobre o mapa.

Mova o rato sobre o mapa para ver o nome da estação.

Depois clique no ponto para visualizar as observações e previsões meteorológicas.

Para alterar o mapa : clique nos botões verdes com uma cruz preta para aumentar o zoom; no botão verde com uma pitada de zoom; ou nas setas verdes para mapas adjacentes.


METAR-TAF: